Time;durP1;ratioP1;P1;durP2;ratioP2;P2;SDS_P1;SDS_P2;PMS_P1;PMS_P2;Temp;Humidity;BMP_temperature;BMP_pressure;BME280_temperature;BME280_humidity;BME280_pressure;Samples;Min_cycle;Max_cycle;Signal;HPM_P1;HPM_P2
2024/01/25 00:00:53;;;;;;;34.23;5.13;;;;;;;;;;4952385;29;20039;-61
2024/01/25 00:03:20;;;;;;;51.43;6.73;;;;;;;;;;4955570;29;20082;-61
2024/01/25 00:05:46;;;;;;;37.23;5.37;;;;;;;;;;4961837;29;20272;-60
2024/01/25 00:08:11;;;;;;;42.33;6.72;;;;;;;;;;4940501;29;20035;-62
2024/01/25 00:10:37;;;;;;;32.43;6.70;;;;;;;;;;4956700;29;20095;-61
2024/01/25 00:13:03;;;;;;;30.00;6.05;;;;;;;;;;4957083;29;20035;-62
2024/01/25 00:15:28;;;;;;;24.83;5.80;;;;;;;;;;4941729;29;20031;-61
2024/01/25 00:17:54;;;;;;;42.27;6.87;;;;;;;;;;4959478;29;20337;-61
2024/01/25 00:20:19;;;;;;;39.57;7.43;;;;;;;;;;4956699;29;20078;-62
2024/01/25 00:22:45;;;;;;;41.20;7.60;;;;;;;;;;4956758;29;20338;-61
2024/01/25 00:25:10;;;;;;;46.43;5.87;;;;;;;;;;4957736;29;20032;-61
2024/01/25 00:27:35;;;;;;;35.17;6.33;;;;;;;;;;4950777;29;20039;-63
2024/01/25 00:30:01;;;;;;;39.57;5.70;;;;;;;;;;4956776;29;20059;-61
2024/01/25 00:32:26;;;;;;;37.37;5.93;;;;;;;;;;4957008;29;20059;-61
2024/01/25 00:34:51;;;;;;;39.23;6.00;;;;;;;;;;4956126;29;20043;-61
2024/01/25 00:37:17;;;;;;;36.28;5.82;;;;;;;;;;4940208;29;20050;-61
2024/01/25 00:39:43;;;;;;;36.23;7.50;;;;;;;;;;4939837;29;20046;-61
2024/01/25 00:42:11;;;;;;;43.20;6.85;;;;;;;;;;4956805;29;20032;-61
2024/01/25 00:44:36;;;;;;;32.23;5.27;;;;;;;;;;4963462;29;20027;-61
2024/01/25 00:47:01;;;;;;;45.37;6.60;;;;;;;;;;4957906;29;20263;-62
2024/01/25 00:49:27;;;;;;;35.00;6.17;;;;;;;;;;4956766;29;20041;-60
2024/01/25 00:51:58;;;;;;;34.50;5.93;;;;;;;;;;4956675;29;20036;-61
2024/01/25 00:54:24;;;;;;;31.63;4.60;;;;;;;;;;4956559;29;20050;-62
2024/01/25 00:56:52;;;;;;;40.07;7.27;;;;;;;;;;4958102;29;20048;-61
2024/01/25 00:59:17;;;;;;;38.72;6.03;;;;;;;;;;4956236;29;20040;-61
2024/01/25 01:01:45;;;;;;;30.13;4.33;;;;;;;;;;4956585;29;20120;-62
2024/01/25 01:04:10;;;;;;;32.15;6.22;;;;;;;;;;4956408;29;20040;-61
2024/01/25 01:06:36;;;;;;;32.38;5.68;;;;;;;;;;4955407;29;20102;-62
2024/01/25 01:09:01;;;;;;;32.80;5.67;;;;;;;;;;4956338;29;20035;-65
2024/01/25 01:11:27;;;;;;;42.45;8.07;;;;;;;;;;4957410;29;20036;-62
2024/01/25 01:13:53;;;;;;;51.50;7.97;;;;;;;;;;4960220;29;20055;-61
2024/01/25 01:16:20;;;;;;;54.83;7.53;;;;;;;;;;4959950;29;20051;-61
2024/01/25 01:18:46;;;;;;;46.33;6.18;;;;;;;;;;4959954;29;20290;-61
2024/01/25 01:21:11;;;;;;;39.57;5.67;;;;;;;;;;4960351;29;20038;-61
2024/01/25 01:23:37;;;;;;;49.95;8.05;;;;;;;;;;4959836;29;20051;-61
2024/01/25 01:26:03;;;;;;;42.30;6.73;;;;;;;;;;4959576;29;20028;-60
2024/01/25 01:28:29;;;;;;;45.47;6.38;;;;;;;;;;4960276;29;20036;-60
2024/01/25 01:30:54;;;;;;;40.40;6.33;;;;;;;;;;4959971;29;20046;-61
2024/01/25 01:33:20;;;;;;;28.47;5.20;;;;;;;;;;4958990;29;20036;-62
2024/01/25 01:35:45;;;;;;;46.83;6.53;;;;;;;;;;4960186;29;20305;-61
2024/01/25 01:38:11;;;;;;;37.15;5.90;;;;;;;;;;4959671;29;20047;-61
2024/01/25 01:40:37;;;;;;;42.80;6.93;;;;;;;;;;4959572;29;20035;-61
2024/01/25 01:43:02;;;;;;;36.57;5.13;;;;;;;;;;4958838;29;20028;-61
2024/01/25 01:45:28;;;;;;;50.28;6.95;;;;;;;;;;4967043;29;20027;-60
2024/01/25 01:47:54;;;;;;;35.17;6.00;;;;;;;;;;4961810;29;20039;-61
2024/01/25 01:50:19;;;;;;;29.17;5.75;;;;;;;;;;4959598;29;20100;-60
2024/01/25 01:52:45;;;;;;;49.53;6.30;;;;;;;;;;4959380;29;20036;-61
2024/01/25 01:55:11;;;;;;;29.25;5.18;;;;;;;;;;4961439;29;20098;-61
2024/01/25 01:57:36;;;;;;;38.33;6.80;;;;;;;;;;4964191;29;20051;-61
2024/01/25 02:00:04;;;;;;;41.65;5.53;;;;;;;;;;4961983;29;20035;-60
2024/01/25 02:02:36;;;;;;;35.97;6.18;;;;;;;;;;4958866;29;20037;-61
2024/01/25 02:05:02;;;;;;;37.93;4.67;;;;;;;;;;4961659;29;20008;-60
2024/01/25 02:07:28;;;;;;;30.77;6.43;;;;;;;;;;4961365;29;20031;-60
2024/01/25 02:09:54;;;;;;;46.10;7.03;;;;;;;;;;4959255;29;20310;-61
2024/01/25 02:12:19;;;;;;;37.97;5.90;;;;;;;;;;4959004;29;20055;-60
2024/01/25 02:14:45;;;;;;;34.97;5.53;;;;;;;;;;4959040;29;20027;-61
2024/01/25 02:17:10;;;;;;;28.93;4.23;;;;;;;;;;4958489;29;20052;-61
2024/01/25 02:19:35;;;;;;;41.97;5.90;;;;;;;;;;4964058;29;20039;-59
2024/01/25 02:22:04;;;;;;;33.25;6.75;;;;;;;;;;4961249;29;20031;-60
2024/01/25 02:24:30;;;;;;;43.72;5.40;;;;;;;;;;4960582;29;20070;-61
2024/01/25 02:26:55;;;;;;;31.50;5.23;;;;;;;;;;4962256;29;20039;-61
2024/01/25 02:29:21;;;;;;;45.10;6.23;;;;;;;;;;4958313;29;20302;-61
2024/01/25 02:31:46;;;;;;;40.67;6.72;;;;;;;;;;4958243;29;20038;-62
2024/01/25 02:34:11;;;;;;;48.07;7.67;;;;;;;;;;4959094;29;20064;-61
2024/01/25 02:36:37;;;;;;;46.58;7.18;;;;;;;;;;4958407;29;20028;-61
2024/01/25 02:39:04;;;;;;;55.05;7.18;;;;;;;;;;4958505;29;20543;-61
2024/01/25 02:41:30;;;;;;;53.17;6.55;;;;;;;;;;4958603;29;20023;-61
2024/01/25 02:43:55;;;;;;;33.78;6.13;;;;;;;;;;4958911;29;20036;-60
2024/01/25 02:46:21;;;;;;;41.47;6.33;;;;;;;;;;4958963;29;20027;-60
2024/01/25 02:48:46;;;;;;;44.60;6.80;;;;;;;;;;4961422;29;20036;-60
2024/01/25 02:51:12;;;;;;;29.83;4.80;;;;;;;;;;4958428;29;20266;-60
2024/01/25 02:53:37;;;;;;;28.30;5.77;;;;;;;;;;4957967;29;20104;-61
2024/01/25 02:56:03;;;;;;;32.37;4.90;;;;;;;;;;4968592;29;20277;-62
2024/01/25 02:58:28;;;;;;;36.63;5.27;;;;;;;;;;4966575;29;20096;-60
2024/01/25 03:00:53;;;;;;;37.27;5.47;;;;;;;;;;4958434;29;20278;-60
2024/01/25 03:03:19;;;;;;;40.90;6.38;;;;;;;;;;4958160;29;20087;-61
2024/01/25 03:05:45;;;;;;;44.53;6.07;;;;;;;;;;4958348;29;20032;-61
2024/01/25 03:08:10;;;;;;;41.93;5.37;;;;;;;;;;4958312;29;20055;-60
2024/01/25 03:10:36;;;;;;;34.85;7.95;;;;;;;;;;4958282;29;20043;-61
2024/01/25 03:13:01;;;;;;;47.07;7.20;;;;;;;;;;4958404;29;20032;-60
2024/01/25 03:15:27;;;;;;;26.30;5.82;;;;;;;;;;4958216;29;20707;-60
2024/01/25 03:17:52;;;;;;;35.90;6.13;;;;;;;;;;4957731;29;20051;-61
2024/01/25 03:20:18;;;;;;;46.73;7.80;;;;;;;;;;4958049;29;20039;-61
2024/01/25 03:22:43;;;;;;;35.40;6.57;;;;;;;;;;4941447;29;20064;-61
2024/01/25 03:25:10;;;;;;;40.87;6.80;;;;;;;;;;4957965;29;20046;-60
2024/01/25 03:27:35;;;;;;;44.65;6.32;;;;;;;;;;4963483;29;20036;-62
2024/01/25 03:30:00;;;;;;;45.63;6.50;;;;;;;;;;4961907;29;20055;-61
2024/01/25 03:32:26;;;;;;;48.88;6.10;;;;;;;;;;4967159;29;20032;-60
2024/01/25 03:34:52;;;;;;;34.03;6.22;;;;;;;;;;4956786;29;20046;-60
2024/01/25 03:37:18;;;;;;;32.10;5.63;;;;;;;;;;4969821;29;20082;-60
2024/01/25 03:39:43;;;;;;;37.37;6.87;;;;;;;;;;4961096;29;20063;-60
2024/01/25 03:42:09;;;;;;;45.50;5.30;;;;;;;;;;4965273;29;20304;-60
2024/01/25 03:44:34;;;;;;;38.28;6.13;;;;;;;;;;4957522;29;20051;-61
2024/01/25 03:47:00;;;;;;;42.40;6.47;;;;;;;;;;4958816;29;20036;-61
2024/01/25 03:49:25;;;;;;;49.05;8.55;;;;;;;;;;4957370;29;20036;-60
2024/01/25 03:51:51;;;;;;;48.23;6.13;;;;;;;;;;4957638;29;20051;-61
2024/01/25 03:54:16;;;;;;;42.53;5.63;;;;;;;;;;4957564;29;20039;-61
2024/01/25 03:56:42;;;;;;;46.17;5.53;;;;;;;;;;4965437;29;20305;-61
2024/01/25 03:59:10;;;;;;;50.43;6.40;;;;;;;;;;4963937;29;20040;-61
2024/01/25 04:01:41;;;;;;;41.92;6.43;;;;;;;;;;4957754;29;20274;-61
2024/01/25 04:04:08;;;;;;;52.70;7.50;;;;;;;;;;4957066;29;20028;-62
2024/01/25 04:06:33;;;;;;;41.78;6.78;;;;;;;;;;4961761;29;20042;-61
2024/01/25 04:08:58;;;;;;;48.93;6.03;;;;;;;;;;4957218;29;20038;-61
2024/01/25 04:11:24;;;;;;;40.28;8.05;;;;;;;;;;4957181;29;20035;-61
2024/01/25 04:13:50;;;;;;;67.70;7.23;;;;;;;;;;4956674;29;20039;-62
2024/01/25 04:16:15;;;;;;;45.35;7.57;;;;;;;;;;4956993;29;20047;-61
2024/01/25 04:18:41;;;;;;;42.30;7.23;;;;;;;;;;4957173;29;20128;-61
2024/01/25 04:21:06;;;;;;;45.87;6.80;;;;;;;;;;4957195;29;20262;-61
2024/01/25 04:23:32;;;;;;;37.80;6.80;;;;;;;;;;4956995;29;20083;-61
2024/01/25 04:25:58;;;;;;;33.77;5.73;;;;;;;;;;4957394;29;20036;-62
2024/01/25 04:28:24;;;;;;;39.60;7.45;;;;;;;;;;4964166;29;20058;-61
2024/01/25 04:30:49;;;;;;;52.03;8.10;;;;;;;;;;4956799;29;20051;-60
2024/01/25 04:33:15;;;;;;;41.00;8.70;;;;;;;;;;4956742;29;20046;-61
2024/01/25 04:35:40;;;;;;;35.30;6.00;;;;;;;;;;4956954;29;20290;-62
2024/01/25 04:38:05;;;;;;;53.20;8.73;;;;;;;;;;4967163;29;20031;-61
2024/01/25 04:40:31;;;;;;;57.97;7.00;;;;;;;;;;4940287;29;20089;-60
2024/01/25 04:42:57;;;;;;;33.08;5.88;;;;;;;;;;4957450;29;20036;-61
2024/01/25 04:45:22;;;;;;;51.03;8.17;;;;;;;;;;4948699;29;20028;-60
2024/01/25 04:47:48;;;;;;;44.92;6.45;;;;;;;;;;4960443;29;20055;-62
2024/01/25 04:50:13;;;;;;;38.00;6.10;;;;;;;;;;4939786;29;20035;-60
2024/01/25 04:52:39;;;;;;;40.95;5.72;;;;;;;;;;4956336;29;20090;-60
2024/01/25 04:55:04;;;;;;;58.70;8.33;;;;;;;;;;4956588;29;20068;-61
2024/01/25 04:57:30;;;;;;;43.47;8.10;;;;;;;;;;4959196;29;20042;-60
2024/01/25 04:59:55;;;;;;;44.17;7.15;;;;;;;;;;4956529;29;20028;-61
2024/01/25 05:02:21;;;;;;;52.83;8.30;;;;;;;;;;4962894;29;20038;-61
2024/01/25 05:04:46;;;;;;;38.42;6.13;;;;;;;;;;4956478;29;20028;-60
2024/01/25 05:07:12;;;;;;;57.67;8.80;;;;;;;;;;4959595;29;20043;-61
2024/01/25 05:09:37;;;;;;;47.00;6.20;;;;;;;;;;4941054;29;20031;-61
2024/01/25 05:12:03;;;;;;;37.70;6.80;;;;;;;;;;4959153;29;20265;-61
2024/01/25 05:14:28;;;;;;;35.80;7.23;;;;;;;;;;4956780;29;20032;-61
2024/01/25 05:16:54;;;;;;;50.27;8.53;;;;;;;;;;4957355;29;20304;-61
2024/01/25 05:19:19;;;;;;;42.90;8.80;;;;;;;;;;4957660;29;20305;-63
2024/01/25 05:21:45;;;;;;;36.53;6.77;;;;;;;;;;4939675;29;20036;-62
2024/01/25 05:24:10;;;;;;;48.77;7.20;;;;;;;;;;4955079;29;20063;-62
2024/01/25 05:26:36;;;;;;;50.03;8.90;;;;;;;;;;4956214;29;20028;-62
2024/01/25 05:29:01;;;;;;;40.97;6.60;;;;;;;;;;4960811;29;20038;-62
2024/01/25 05:31:27;;;;;;;48.78;5.30;;;;;;;;;;4958751;29;20046;-62
2024/01/25 05:33:52;;;;;;;48.57;7.30;;;;;;;;;;4939697;29;20051;-60
2024/01/25 05:36:18;;;;;;;50.50;6.17;;;;;;;;;;4955953;29;20101;-60
2024/01/25 05:38:43;;;;;;;46.80;6.60;;;;;;;;;;4950971;29;20311;-61
2024/01/25 05:41:09;;;;;;;43.23;7.23;;;;;;;;;;4955811;29;20055;-61
2024/01/25 05:43:35;;;;;;;47.03;6.27;;;;;;;;;;4956028;29;20278;-61
2024/01/25 05:46:00;;;;;;;37.73;6.30;;;;;;;;;;4962002;29;20047;-60
2024/01/25 05:48:26;;;;;;;47.45;6.30;;;;;;;;;;4960443;29;20484;-60
2024/01/25 05:50:51;;;;;;;40.83;7.27;;;;;;;;;;4955867;29;20054;-61
2024/01/25 05:53:19;;;;;;;39.93;7.77;;;;;;;;;;4962515;29;20304;-61
2024/01/25 05:55:45;;;;;;;52.65;8.45;;;;;;;;;;4957474;29;20046;-61
2024/01/25 05:58:10;;;;;;;46.90;7.43;;;;;;;;;;4958423;29;20039;-62
2024/01/25 06:00:36;;;;;;;59.53;7.82;;;;;;;;;;4961598;29;20400;-62
2024/01/25 06:03:02;;;;;;;52.15;6.60;;;;;;;;;;4959545;29;20031;-61
2024/01/25 06:05:27;;;;;;;43.63;6.33;;;;;;;;;;4960138;29;20004;-62
2024/01/25 06:07:52;;;;;;;44.50;6.53;;;;;;;;;;4961143;29;20083;-61
2024/01/25 06:10:18;;;;;;;40.63;6.77;;;;;;;;;;4962282;29;20121;-61
2024/01/25 06:12:43;;;;;;;43.20;8.47;;;;;;;;;;4972059;29;20091;-62
2024/01/25 06:15:09;;;;;;;44.47;7.30;;;;;;;;;;4962208;29;20265;-61
2024/01/25 06:17:35;;;;;;;45.13;7.60;;;;;;;;;;4961835;29;20036;-61
2024/01/25 06:20:02;;;;;;;47.03;6.37;;;;;;;;;;4960468;29;20274;-62
2024/01/25 06:22:27;;;;;;;47.15;7.43;;;;;;;;;;4960196;29;20047;-60
2024/01/25 06:24:53;;;;;;;55.30;9.10;;;;;;;;;;4958819;29;20060;-61
2024/01/25 06:27:19;;;;;;;60.90;7.47;;;;;;;;;;4953139;29;20035;-61
2024/01/25 06:29:44;;;;;;;47.65;8.32;;;;;;;;;;4965344;29;20028;-62
2024/01/25 06:32:10;;;;;;;39.27;6.90;;;;;;;;;;4956842;29;20048;-62
2024/01/25 06:34:35;;;;;;;39.60;6.83;;;;;;;;;;4958673;29;20270;-61
2024/01/25 06:37:01;;;;;;;61.97;8.87;;;;;;;;;;4958934;29;20031;-60
2024/01/25 06:39:26;;;;;;;39.80;6.67;;;;;;;;;;4963996;29;20290;-61
2024/01/25 06:41:52;;;;;;;49.88;7.72;;;;;;;;;;4963204;29;20024;-61
2024/01/25 06:44:17;;;;;;;52.63;8.77;;;;;;;;;;4958189;29;20054;-61
2024/01/25 06:46:43;;;;;;;44.75;9.13;;;;;;;;;;4968858;29;20035;-60
2024/01/25 06:49:08;;;;;;;51.50;7.63;;;;;;;;;;4965615;29;20016;-60
2024/01/25 06:51:34;;;;;;;59.17;7.57;;;;;;;;;;4957843;29;20070;-61
2024/01/25 06:53:59;;;;;;;53.20;8.77;;;;;;;;;;4958489;29;20274;-61
2024/01/25 06:56:25;;;;;;;52.05;7.65;;;;;;;;;;4957908;29;20067;-61
2024/01/25 06:58:50;;;;;;;47.77;8.87;;;;;;;;;;4962029;29;20044;-61
2024/01/25 07:01:22;;;;;;;35.97;8.10;;;;;;;;;;4961227;29;20035;-61
2024/01/25 07:03:50;;;;;;;56.75;8.95;;;;;;;;;;4958101;29;20269;-62
2024/01/25 07:06:17;;;;;;;48.88;7.63;;;;;;;;;;4942157;29;20052;-60
2024/01/25 07:08:42;;;;;;;45.25;7.53;;;;;;;;;;4957163;29;20036;-61
2024/01/25 07:11:08;;;;;;;52.10;9.83;;;;;;;;;;4957807;29;20046;-60
2024/01/25 07:13:33;;;;;;;45.70;7.73;;;;;;;;;;4957949;29;20035;-61
2024/01/25 07:15:58;;;;;;;43.40;8.90;;;;;;;;;;4969136;29;20031;-62
2024/01/25 07:18:24;;;;;;;70.00;8.73;;;;;;;;;;4958514;29;20063;-60
2024/01/25 07:20:49;;;;;;;47.50;8.10;;;;;;;;;;4957027;29;20034;-61
2024/01/25 07:23:15;;;;;;;59.57;8.03;;;;;;;;;;4957023;29;20032;-61
2024/01/25 07:25:40;;;;;;;57.83;8.00;;;;;;;;;;4960804;29;20459;-61
2024/01/25 07:28:05;;;;;;;46.10;7.43;;;;;;;;;;4957382;29;20055;-61
2024/01/25 07:30:30;;;;;;;52.57;7.27;;;;;;;;;;4961098;29;20038;-61
2024/01/25 07:32:56;;;;;;;37.08;6.43;;;;;;;;;;4963834;29;20103;-61
2024/01/25 07:35:23;;;;;;;52.93;8.67;;;;;;;;;;4957508;29;20043;-61
2024/01/25 07:37:48;;;;;;;36.17;8.05;;;;;;;;;;4957086;29;20289;-61
2024/01/25 07:40:13;;;;;;;39.03;7.33;;;;;;;;;;4966637;29;20040;-61
2024/01/25 07:42:39;;;;;;;43.33;7.70;;;;;;;;;;4956837;29;20044;-62
2024/01/25 07:45:04;;;;;;;42.83;7.87;;;;;;;;;;4960777;29;20092;-60
2024/01/25 07:47:30;;;;;;;54.17;8.32;;;;;;;;;;4957248;29;20044;-60
2024/01/25 07:49:55;;;;;;;51.90;7.57;;;;;;;;;;4962837;29;20064;-61
2024/01/25 07:52:20;;;;;;;39.93;8.67;;;;;;;;;;4956676;29;20055;-62
2024/01/25 07:54:46;;;;;;;47.93;9.47;;;;;;;;;;4939952;29;20028;-60
2024/01/25 07:57:11;;;;;;;60.10;9.47;;;;;;;;;;4939308;29;20054;-61
2024/01/25 07:59:37;;;;;;;50.13;8.82;;;;;;;;;;4958889;29;20035;-60
2024/01/25 08:02:02;;;;;;;60.33;9.13;;;;;;;;;;4956637;29;20035;-60
2024/01/25 08:04:28;;;;;;;53.37;9.27;;;;;;;;;;4957095;29;20052;-61
2024/01/25 08:06:53;;;;;;;44.72;7.30;;;;;;;;;;4956945;29;20036;-62
2024/01/25 08:09:19;;;;;;;49.87;9.13;;;;;;;;;;4958275;29;20044;-61
2024/01/25 08:11:45;;;;;;;58.13;8.47;;;;;;;;;;4956685;29;20035;-62
2024/01/25 08:14:11;;;;;;;41.90;8.05;;;;;;;;;;4956411;29;20036;-61
2024/01/25 08:16:36;;;;;;;64.45;9.90;;;;;;;;;;4959270;29;20043;-61
2024/01/25 08:19:03;;;;;;;40.83;8.32;;;;;;;;;;4958750;29;20086;-61
2024/01/25 08:21:29;;;;;;;58.25;10.48;;;;;;;;;;4957911;29;20027;-61
2024/01/25 08:23:54;;;;;;;55.33;12.20;;;;;;;;;;4956537;29;20035;-61
2024/01/25 08:26:20;;;;;;;48.37;9.60;;;;;;;;;;4956555;29;20036;-61
2024/01/25 08:28:46;;;;;;;59.53;10.57;;;;;;;;;;4957506;29;20039;-61
2024/01/25 08:31:11;;;;;;;61.58;10.27;;;;;;;;;;4957237;29;20046;-61
2024/01/25 08:33:38;;;;;;;52.17;7.37;;;;;;;;;;4956903;29;20036;-61
2024/01/25 08:36:04;;;;;;;44.28;8.60;;;;;;;;;;4961757;29;20039;-61
2024/01/25 08:38:29;;;;;;;53.83;8.03;;;;;;;;;;4956988;28;20043;-62
2024/01/25 08:40:55;;;;;;;46.60;8.53;;;;;;;;;;4960202;29;20357;-61
2024/01/25 08:43:20;;;;;;;48.47;9.23;;;;;;;;;;4957532;29;20031;-61
2024/01/25 08:45:46;;;;;;;53.38;8.27;;;;;;;;;;4955779;29;20036;-60
2024/01/25 08:48:13;;;;;;;36.00;7.50;;;;;;;;;;4956754;29;20035;-61
2024/01/25 08:50:39;;;;;;;44.72;8.27;;;;;;;;;;4959133;29;20059;-61
2024/01/25 08:53:05;;;;;;;51.35;9.40;;;;;;;;;;4956057;29;20039;-61
2024/01/25 08:55:30;;;;;;;51.55;8.32;;;;;;;;;;4956482;29;20032;-61
2024/01/25 08:57:55;;;;;;;29.90;7.17;;;;;;;;;;4950256;29;20033;-60
2024/01/25 09:00:21;;;;;;;36.22;8.50;;;;;;;;;;4956033;29;20031;-61
2024/01/25 09:02:47;;;;;;;58.03;8.05;;;;;;;;;;4955427;29;20027;-62
2024/01/25 09:05:12;;;;;;;65.27;9.53;;;;;;;;;;4957045;29;20040;-60
2024/01/25 09:07:38;;;;;;;50.70;7.68;;;;;;;;;;4955777;29;20036;-60
2024/01/25 09:10:07;;;;;;;43.07;8.00;;;;;;;;;;4959348;29;20023;-60
2024/01/25 09:12:32;;;;;;;50.72;8.15;;;;;;;;;;4960274;29;20284;-60
2024/01/25 09:14:58;;;;;;;27.27;6.57;;;;;;;;;;4960450;29;20074;-61
2024/01/25 09:17:23;;;;;;;46.17;9.37;;;;;;;;;;4954514;29;20270;-61
2024/01/25 09:19:52;;;;;;;43.00;8.10;;;;;;;;;;4960814;29;20277;-61
2024/01/25 09:22:19;;;;;;;45.28;8.95;;;;;;;;;;4955918;29;20043;-62
2024/01/25 09:24:45;;;;;;;44.40;8.30;;;;;;;;;;4955784;29;20039;-61
2024/01/25 09:27:11;;;;;;;40.78;7.22;;;;;;;;;;4947217;29;20039;-61
2024/01/25 09:29:38;;;;;;;53.75;8.02;;;;;;;;;;4957365;29;20101;-60
2024/01/25 09:32:04;;;;;;;38.37;8.17;;;;;;;;;;4955724;29;20032;-62
2024/01/25 09:34:30;;;;;;;49.70;8.07;;;;;;;;;;4965966;29;20308;-62
2024/01/25 09:36:55;;;;;;;35.73;9.27;;;;;;;;;;4965667;29;20065;-61
2024/01/25 09:39:20;;;;;;;45.63;9.07;;;;;;;;;;4962117;29;20054;-61
2024/01/25 09:41:46;;;;;;;41.20;7.63;;;;;;;;;;4960845;29;20019;-61
2024/01/25 09:44:11;;;;;;;36.53;8.20;;;;;;;;;;4960895;29;20028;-61
2024/01/25 09:46:37;;;;;;;30.60;7.57;;;;;;;;;;4962345;29;20100;-60
2024/01/25 09:49:02;;;;;;;33.97;7.50;;;;;;;;;;4959007;29;20063;-61
2024/01/25 09:51:30;;;;;;;35.30;6.93;;;;;;;;;;4959238;29;20270;-62
2024/01/25 09:53:58;;;;;;;40.43;7.50;;;;;;;;;;4959098;29;20063;-60
2024/01/25 09:56:23;;;;;;;35.43;7.93;;;;;;;;;;4960395;29;20365;-63
2024/01/25 09:58:50;;;;;;;31.33;7.57;;;;;;;;;;4969294;29;20285;-61
2024/01/25 10:01:15;;;;;;;50.47;7.60;;;;;;;;;;4958769;29;20092;-61
2024/01/25 10:03:45;;;;;;;47.13;8.40;;;;;;;;;;4958853;29;20028;-62
2024/01/25 10:06:11;;;;;;;46.10;8.07;;;;;;;;;;4958600;29;20036;-61
2024/01/25 10:08:36;;;;;;;39.33;8.60;;;;;;;;;;4958511;29;20277;-61
2024/01/25 10:11:02;;;;;;;36.90;8.17;;;;;;;;;;4968605;29;20028;-61
2024/01/25 10:13:28;;;;;;;32.95;8.27;;;;;;;;;;4961750;29;20297;-61
2024/01/25 10:15:54;;;;;;;40.97;8.20;;;;;;;;;;4958957;29;20043;-61
2024/01/25 10:18:19;;;;;;;38.28;9.10;;;;;;;;;;4960183;29;20297;-61
2024/01/25 10:20:45;;;;;;;43.88;8.82;;;;;;;;;;4961054;29;20024;-61
2024/01/25 10:23:10;;;;;;;43.43;9.37;;;;;;;;;;4958835;29;20047;-61
2024/01/25 10:25:37;;;;;;;51.13;10.45;;;;;;;;;;4958634;29;20042;-61
2024/01/25 10:28:03;;;;;;;47.35;9.63;;;;;;;;;;4958746;29;20100;-60
2024/01/25 10:30:31;;;;;;;38.70;8.27;;;;;;;;;;4962019;29;20068;-62
2024/01/25 10:32:58;;;;;;;45.23;9.60;;;;;;;;;;4942165;29;20035;-61
2024/01/25 10:35:24;;;;;;;43.38;8.77;;;;;;;;;;4960082;29;20270;-62
2024/01/25 10:37:50;;;;;;;37.50;7.85;;;;;;;;;;4969571;29;20031;-60
2024/01/25 10:40:18;;;;;;;43.88;8.43;;;;;;;;;;4944531;29;20043;-60
2024/01/25 10:42:43;;;;;;;32.27;8.47;;;;;;;;;;4958221;29;20040;-61
2024/01/25 10:45:09;;;;;;;30.87;8.80;;;;;;;;;;4947539;29;20257;-61
2024/01/25 10:47:35;;;;;;;50.20;9.65;;;;;;;;;;4963316;29;20051;-61
2024/01/25 10:50:01;;;;;;;38.50;9.87;;;;;;;;;;4965820;29;20031;-61
2024/01/25 10:52:26;;;;;;;31.70;8.15;;;;;;;;;;4961271;29;20359;-63
2024/01/25 10:54:52;;;;;;;39.87;9.40;;;;;;;;;;4957699;29;20039;-60
2024/01/25 10:57:17;;;;;;;49.47;8.98;;;;;;;;;;4958017;29;20039;-61
2024/01/25 10:59:43;;;;;;;49.57;10.63;;;;;;;;;;4960248;29;20046;-62
2024/01/25 11:02:09;;;;;;;41.40;9.98;;;;;;;;;;4959082;29;20024;-61
2024/01/25 11:04:34;;;;;;;53.07;9.33;;;;;;;;;;4968179;29;20066;-61
2024/01/25 11:07:08;;;;;;;50.83;11.43;;;;;;;;;;4943815;29;20285;-60
2024/01/25 11:09:36;;;;;;;44.60;10.10;;;;;;;;;;4953717;29;20037;-61
2024/01/25 11:12:08;;;;;;;49.00;11.53;;;;;;;;;;4957713;29;20284;-61
2024/01/25 11:14:36;;;;;;;49.23;9.57;;;;;;;;;;4957667;29;20293;-61
2024/01/25 11:17:14;;;;;;;40.73;9.90;;;;;;;;;;4957147;29;20258;-60
2024/01/25 11:19:40;;;;;;;45.33;10.13;;;;;;;;;;4961323;29;20365;-66
2024/01/25 11:22:06;;;;;;;45.10;11.33;;;;;;;;;;4960649;29;20270;-61
2024/01/25 11:24:37;;;;;;;39.80;9.93;;;;;;;;;;4957428;29;20495;-62
2024/01/25 11:27:02;;;;;;;47.97;9.90;;;;;;;;;;4957003;29;20024;-61
2024/01/25 11:29:28;;;;;;;52.97;12.40;;;;;;;;;;4963565;29;20312;-61
2024/01/25 11:31:53;;;;;;;45.47;10.00;;;;;;;;;;4961602;29;20046;-61
2024/01/25 11:34:19;;;;;;;44.88;12.70;;;;;;;;;;4961961;29;20035;-61
2024/01/25 11:36:44;;;;;;;55.67;12.40;;;;;;;;;;4961679;29;20063;-61
2024/01/25 11:39:11;;;;;;;45.85;12.25;;;;;;;;;;4957864;29;20044;-61
2024/01/25 11:41:37;;;;;;;51.60;10.33;;;;;;;;;;4966714;29;20042;-60
2024/01/25 11:44:03;;;;;;;44.72;11.30;;;;;;;;;;4957298;29;20259;-60
2024/01/25 11:46:29;;;;;;;57.20;11.48;;;;;;;;;;4960655;29;20035;-62
2024/01/25 11:48:55;;;;;;;47.33;11.53;;;;;;;;;;4956867;29;20050;-61
2024/01/25 11:51:21;;;;;;;58.83;11.80;;;;;;;;;;4963222;29;20282;-61
2024/01/25 11:53:47;;;;;;;52.47;11.75;;;;;;;;;;4963010;29;20071;-61
2024/01/25 11:56:16;;;;;;;40.43;10.70;;;;;;;;;;4957499;29;20043;-61
2024/01/25 11:58:43;;;;;;;43.93;11.20;;;;;;;;;;4956652;29;20066;-60
2024/01/25 12:01:08;;;;;;;54.40;11.23;;;;;;;;;;4963561;29;20270;-60
2024/01/25 12:03:36;;;;;;;47.05;11.05;;;;;;;;;;4956559;29;20042;-61
2024/01/25 12:06:01;;;;;;;38.33;9.90;;;;;;;;;;4940008;29;20137;-60
2024/01/25 12:08:27;;;;;;;51.65;11.15;;;;;;;;;;4956925;29;20266;-62
2024/01/25 12:11:02;;;;;;;56.60;11.80;;;;;;;;;;4963992;29;20031;-61
2024/01/25 12:13:28;;;;;;;49.07;11.47;;;;;;;;;;4956727;29;20046;-60
2024/01/25 12:15:55;;;;;;;48.83;10.90;;;;;;;;;;4956193;29;20277;-61
2024/01/25 12:18:21;;;;;;;44.87;12.10;;;;;;;;;;4956422;29;20282;-61
2024/01/25 12:20:47;;;;;;;48.45;13.27;;;;;;;;;;4961689;29;20281;-61
2024/01/25 12:23:13;;;;;;;43.63;12.17;;;;;;;;;;4940243;29;20027;-61
2024/01/25 12:25:39;;;;;;;44.70;12.98;;;;;;;;;;4957752;29;20033;-62
2024/01/25 12:28:04;;;;;;;46.28;12.50;;;;;;;;;;4961136;29;20037;-60
2024/01/25 12:30:31;;;;;;;55.60;13.52;;;;;;;;;;4963570;29;20055;-61
2024/01/25 12:32:56;;;;;;;42.28;11.27;;;;;;;;;;4958217;29;20061;-61
2024/01/25 12:35:23;;;;;;;62.40;12.95;;;;;;;;;;4955501;29;20038;-60
2024/01/25 12:37:48;;;;;;;49.90;11.57;;;;;;;;;;4955774;29;20032;-61
2024/01/25 12:40:14;;;;;;;49.33;11.87;;;;;;;;;;4958205;29;20310;-63
2024/01/25 12:42:39;;;;;;;48.80;12.10;;;;;;;;;;4956543;29;20281;-61
2024/01/25 12:45:05;;;;;;;49.47;11.80;;;;;;;;;;4956357;29;20032;-60
2024/01/25 12:47:30;;;;;;;46.57;12.40;;;;;;;;;;4939016;29;20039;-61
2024/01/25 12:49:55;;;;;;;44.40;12.43;;;;;;;;;;4959214;29;20023;-62
2024/01/25 12:52:21;;;;;;;44.92;12.00;;;;;;;;;;4957385;29;20035;-61
2024/01/25 12:54:46;;;;;;;35.90;11.10;;;;;;;;;;4957720;29;20043;-62
2024/01/25 12:57:11;;;;;;;58.37;12.63;;;;;;;;;;4955717;29;20043;-61
2024/01/25 12:59:38;;;;;;;53.67;14.20;;;;;;;;;;4959685;29;20031;-61
2024/01/25 13:02:03;;;;;;;44.30;12.00;;;;;;;;;;4961100;29;20038;-60
2024/01/25 13:04:29;;;;;;;51.38;12.25;;;;;;;;;;4956048;29;20128;-60
2024/01/25 13:06:55;;;;;;;51.10;14.70;;;;;;;;;;4963627;28;20032;-61
2024/01/25 13:09:20;;;;;;;;;;;;;;;;;;4961160;29;20063;-60
2024/01/25 13:11:46;;;;;;;44.60;13.93;;;;;;;;;;4969113;29;19910;-61
2024/01/25 13:14:11;;;;;;;53.17;14.13;;;;;;;;;;4963378;29;20040;-61
2024/01/25 13:16:36;;;;;;;57.83;14.97;;;;;;;;;;4960534;29;20032;-61
2024/01/25 13:19:02;;;;;;;50.13;14.93;;;;;;;;;;4960441;29;20078;-61
2024/01/25 13:21:27;;;;;;;49.77;13.13;;;;;;;;;;4971688;29;20035;-61
2024/01/25 13:23:52;;;;;;;55.60;13.73;;;;;;;;;;4965367;29;20043;-62
2024/01/25 13:26:18;;;;;;;46.95;12.68;;;;;;;;;;4959810;29;20055;-60
2024/01/25 13:28:43;;;;;;;43.57;12.90;;;;;;;;;;4958002;29;20043;-61
2024/01/25 13:31:09;;;;;;;51.77;14.87;;;;;;;;;;4964919;29;20281;-61
2024/01/25 13:33:34;;;;;;;57.67;14.00;;;;;;;;;;4959045;29;20300;-61
2024/01/25 13:35:59;;;;;;;50.60;13.97;;;;;;;;;;4962375;29;20043;-62
2024/01/25 13:38:25;;;;;;;53.47;14.87;;;;;;;;;;4958629;29;20036;-61
2024/01/25 13:40:51;;;;;;;44.33;14.30;;;;;;;;;;4966378;29;20127;-62
2024/01/25 13:43:17;;;;;;;56.72;12.93;;;;;;;;;;4958909;29;20028;-61
2024/01/25 13:45:42;;;;;;;48.75;13.88;;;;;;;;;;4959312;29;20087;-60
2024/01/25 13:48:08;;;;;;;45.20;12.53;;;;;;;;;;4961171;29;20046;-61
2024/01/25 13:50:33;;;;;;;51.77;12.93;;;;;;;;;;4967216;29;20277;-62
2024/01/25 13:52:58;;;;;;;47.97;12.17;;;;;;;;;;4963412;29;20035;-62
2024/01/25 13:55:24;;;;;;;48.50;13.47;;;;;;;;;;4964933;29;20543;-61
2024/01/25 13:57:49;;;;;;;50.57;15.17;;;;;;;;;;4958124;29;20024;-63
2024/01/25 14:00:14;;;;;;;52.93;14.30;;;;;;;;;;4962302;29;20038;-60
2024/01/25 14:02:44;;;;;;;58.13;13.57;;;;;;;;;;4966936;29;20044;-60
2024/01/25 14:05:10;;;;;;;50.20;13.23;;;;;;;;;;4962096;29;20034;-61
2024/01/25 14:07:35;;;;;;;57.83;13.77;;;;;;;;;;4960793;29;20337;-61
2024/01/25 14:10:01;;;;;;;40.67;10.23;;;;;;;;;;4962880;29;20304;-61
2024/01/25 14:12:26;;;;;;;51.93;15.53;;;;;;;;;;4958195;29;20274;-61
2024/01/25 14:14:51;;;;;;;42.33;11.47;;;;;;;;;;4960117;29;20039;-62
2024/01/25 14:17:16;;;;;;;50.00;13.53;;;;;;;;;;4958358;29;20028;-61
2024/01/25 14:19:42;;;;;;;61.03;15.38;;;;;;;;;;4957125;29;20059;-61